createdAt,value
2022-11-28T00:06:53.763Z,0.25
2022-11-28T00:18:54.241Z,1.02
2022-11-28T00:30:54.665Z,1.06
2022-11-28T00:42:55.108Z,0.95
2022-11-28T00:54:55.607Z,0.58
2022-11-28T01:06:56.029Z,0.89
2022-11-28T01:18:56.432Z,1.04
2022-11-28T01:30:56.914Z,0.95
2022-11-28T01:42:57.391Z,0.54
2022-11-28T01:54:57.823Z,0.77
2022-11-28T02:06:58.289Z,0.89
2022-11-28T02:18:58.741Z,1.18
2022-11-28T02:30:59.278Z,0.84
2022-11-28T02:42:59.645Z,0.82
2022-11-28T02:55:00.088Z,1.40
2022-11-28T03:07:00.538Z,0.35
2022-11-28T03:19:01.005Z,0.69
2022-11-28T03:31:01.498Z,1.00
2022-11-28T03:43:01.850Z,0.75
2022-11-28T03:55:02.315Z,1.47
2022-11-28T04:07:02.761Z,0.81
2022-11-28T04:19:03.257Z,0.51
2022-11-28T04:31:03.678Z,1.33
2022-11-28T04:43:04.160Z,1.32
2022-11-28T04:55:04.607Z,1.60
2022-11-28T05:07:05.068Z,0.62
2022-11-28T05:19:05.489Z,1.34
2022-11-28T05:31:06.020Z,0.89
2022-11-28T05:43:06.463Z,1.13
2022-11-28T05:55:06.872Z,1.54
2022-11-28T06:07:07.330Z,0.90
2022-11-28T06:19:07.740Z,1.19
2022-11-28T06:31:08.205Z,1.01
2022-11-28T06:43:08.707Z,1.59
2022-11-28T06:55:09.094Z,1.05
2022-11-28T07:07:13.702Z,1.55
2022-11-28T07:19:10.049Z,1.17
2022-11-28T07:31:10.479Z,1.43
2022-11-28T07:43:10.928Z,2.67
2022-11-28T07:55:11.431Z,2.00
2022-11-28T08:07:11.907Z,1.44
2022-11-28T08:19:12.300Z,2.14
2022-11-28T08:31:12.795Z,1.73
2022-11-28T08:43:13.182Z,1.30
2022-11-28T08:55:13.697Z,2.08
2022-11-28T09:07:14.206Z,1.26
2022-11-28T09:19:14.558Z,1.64
2022-11-28T09:31:15.211Z,1.46
2022-11-28T09:43:15.517Z,1.59
2022-11-28T09:55:15.948Z,1.45
2022-11-28T10:07:16.426Z,3.04
2022-11-28T10:19:46.155Z,2.17
2022-11-28T10:31:17.351Z,1.38
2022-11-28T10:43:17.679Z,1.92
2022-11-28T10:55:18.194Z,1.18
2022-11-28T11:07:21.015Z,1.71
2022-11-28T11:19:19.096Z,1.79
2022-11-28T11:31:19.569Z,1.87
2022-11-28T11:43:19.965Z,2.52
2022-11-28T11:55:20.423Z,1.69
2022-11-28T12:07:20.980Z,1.32
2022-11-28T12:19:21.313Z,1.77
2022-11-28T12:31:21.847Z,1.91
2022-11-28T12:43:22.206Z,1.92
2022-11-28T12:55:22.715Z,2.69
2022-11-28T13:07:23.167Z,1.99
2022-11-28T13:19:23.634Z,1.53
2022-11-28T13:31:24.146Z,2.15
2022-11-28T13:43:24.513Z,1.26
2022-11-28T13:55:24.930Z,1.66
2022-11-28T14:07:25.458Z,1.68
2022-11-28T14:19:25.869Z,1.30
2022-11-28T14:31:26.321Z,0.64
2022-11-28T14:43:26.767Z,1.29
2022-11-28T14:55:27.177Z,1.87
2022-11-28T15:07:27.683Z,2.75
2022-11-28T15:19:28.121Z,2.04
2022-11-28T15:31:28.576Z,2.21
2022-11-28T15:43:29.004Z,2.71
2022-11-28T15:55:29.495Z,1.99
2022-11-28T16:07:29.914Z,1.75
2022-11-28T16:19:30.352Z,2.53
2022-11-28T16:31:31.059Z,1.68
2022-11-28T16:43:31.286Z,2.69
2022-11-28T16:55:31.736Z,1.97
2022-11-28T17:07:32.211Z,2.28
2022-11-28T17:19:32.604Z,1.58
2022-11-28T17:31:33.072Z,1.41
2022-11-28T17:43:37.557Z,2.17
2022-11-28T17:55:34.000Z,2.43
2022-11-28T18:07:34.446Z,1.93
2022-11-28T18:19:34.886Z,2.29
2022-11-28T18:31:35.390Z,2.15
2022-11-28T18:43:35.820Z,2.23
2022-11-28T18:55:36.215Z,2.94
2022-11-28T19:07:36.741Z,2.89
2022-11-28T19:19:37.132Z,1.97
2022-11-28T19:31:37.647Z,1.77
2022-11-28T19:43:38.042Z,2.58
2022-11-28T19:55:38.495Z,3.47
2022-11-28T20:07:39.004Z,3.22
2022-11-28T20:19:39.425Z,3.84
2022-11-28T20:31:39.882Z,3.27
2022-11-28T20:43:40.284Z,2.56
2022-11-28T20:55:40.751Z,3.04
2022-11-28T21:07:41.258Z,3.11
2022-11-28T21:19:41.979Z,3.20
2022-11-28T21:31:42.153Z,3.69
2022-11-28T21:43:42.579Z,3.52
2022-11-28T21:55:43.024Z,2.68
2022-11-28T22:07:43.525Z,3.19
2022-11-28T22:19:43.946Z,2.69
2022-11-28T22:31:44.398Z,2.60
2022-11-28T22:43:44.803Z,2.78
2022-11-28T22:55:45.264Z,1.42
2022-11-28T23:07:45.718Z,2.29
2022-11-28T23:19:46.197Z,2.57
2022-11-28T23:31:46.666Z,2.80
2022-11-28T23:43:47.101Z,2.03
2022-11-28T23:55:47.530Z,2.16
